LICJLICA

Guest
Details From LICJ - PALERMO
To LICA - Lamezia Terme
Flight Number -
Tags generated
Created
Modified
Stats Distance 155 nm / 288 km
Max Altitude 19,400 ft / 5,913 m
Waypoints 3
Social Downloads 7
Likes 0
Share VATSIM

Download

Looking for another format? Having issues loading an existing format? Contact us
Advertisement - Login to hide

Notes

Basic altitude profile: - Ascent Rate: 2500ft/min - Ascent Speed: 250kts - Cruise Altitude: 35000ft - Cruise Speed: 420kts - Descent Rate: 1500ft/min - Descent Speed: 250kts Options: - Use NATs: yes - Use PACOTS: yes - Use low airways: yes - Use high airways: yes

Route

LICJ PELEN LICA

ID Type Via Altitude Latitude Longitude Leg Dist Tot Dist Heading (true) Name
O LICJ APT - 0 ft / 0 m 38.17738˚ 13.09704˚ - 0 nm - PALERMO
PELEN FIX - 19,400 ft / 5,913 m 38.33472˚ 14.45389˚ 64 nm 64 nm 81° / 82° -
O LICA APT - 0 ft / 0 m 38.90539˚ 16.24227˚ 90 nm 155 nm 67° / 68° Lamezia Terme

Altitude Profile

Advertisement - Login to hide

LICJ

Details ICAO LICJ (PMO)
Name PALERMO
Region Italy
Timezone Europe/Rome (UTC+2.0)
Stats Elevation 65 ft / 20 m (AMSL)
Location 38.177377° 13.097035°
Runways 2
Magnetic Variation 2.993° E

METAR

LICJ 251050Z 04018KT CAVOK 21/16 Q1015

Decode

TAF

TAF LICJ 250500Z 2506/2606 VRB05KT CAVOK BECMG 2508/2510 05012KT BECMG 2517/2519 VRB04KT

Decode

Departure Runways

ID Width Length Bearing (true) Bearing (mag) Surface Threshold Offset Overrun Length
02 148 ft / 45 m 6,813 ft / 2,077 m 23.81° 20.82° Asphalt 10 ft / 3 m 0 ft / 0 m
07 197 ft / 60 m 10,685 ft / 3,257 m 66.82° 63.83° Asphalt 404 ft / 123 m 0 ft / 0 m
20 148 ft / 45 m 6,813 ft / 2,077 m 203.81° 200.82° Asphalt 10 ft / 3 m 0 ft / 0 m
25 197 ft / 60 m 10,685 ft / 3,257 m 246.85° 243.86° Asphalt 679 ft / 207 m 0 ft / 0 m

LICA

Details ICAO LICA (SUF)
Name Lamezia Terme
Region Italy
Timezone Europe/Rome (UTC+2.0)
Stats Elevation 39 ft / 12 m (AMSL)
Location 38.905394° 16.242271°
Runways 1
Magnetic Variation 3.538° E

METAR

LICA 251050Z 26011KT 9999 FEW015 BKN040 22/18 Q1016

Decode

TAF

TAF LICA 250500Z 2506/2606 VRB05KT 8000 BKN020 BECMG 2508/2510 27012KT TEMPO 2512/2516 RA BECMG 2517/2519 VRB04KT

Decode

Destination Runways

ID Width Length Bearing (true) Bearing (mag) Surface Threshold Offset Overrun Length
10 148 ft / 45 m 7,858 ft / 2,395 m 98.54° 95.00° Asphalt 348 ft / 106 m 0 ft / 0 m
28 148 ft / 45 m 7,858 ft / 2,395 m 278.55° 275.01° Asphalt 351 ft / 107 m 0 ft / 0 m

Approach Navaids

Runway Type Ident Frequency Range Bearing (true) Bearing (mag) Slope Elevation
28 Localiser LAM 110.30 MHz 18 nm / 33 km 278.54° 275.00° - 21 ft / 6 m (AMSL)
28 Glidescope LAM 110.30 MHz 10 nm / 19 km 278.55° 275.01° 3.00° 21 ft / 6 m (AMSL)
28 DME LAM 110.30 MHz 25 nm / 46 km - - - 21 ft / 6 m (AMSL)

Popular Alternatives